Time;durP1;ratioP1;P1;durP2;ratioP2;P2;SDS_P1;SDS_P2;PMS_P1;PMS_P2;Temp;Humidity;BMP_temperature;BMP_pressure;BME280_temperature;BME280_humidity;BME280_pressure;Samples;Min_cycle;Max_cycle;Signal;HPM_P1;HPM_P2
2021/06/06 00:02:09;;;;;;;5.07;3.00;;;23.70;60.00;;;;;;4997572;28;20204;-61
2021/06/06 00:04:39;;;;;;;5.38;3.00;;;23.70;60.40;;;;;;5011034;28;20029;-61
2021/06/06 00:07:05;;;;;;;5.00;3.10;;;23.60;60.90;;;;;;5007289;28;20029;-62
2021/06/06 00:09:31;;;;;;;7.10;3.33;;;23.50;61.20;;;;;;5010549;28;20476;-61
2021/06/06 00:11:56;;;;;;;5.85;3.10;;;23.40;61.50;;;;;;5010229;28;20066;-61
2021/06/06 00:14:30;;;;;;;5.93;3.20;;;23.30;62.00;;;;;;5010450;28;20033;-61
2021/06/06 00:16:59;;;;;;;4.95;2.90;;;23.30;61.70;;;;;;5011231;28;20105;-61
2021/06/06 00:19:26;;;;;;;8.32;3.08;;;23.30;62.00;;;;;;4989948;28;20056;-60
2021/06/06 00:21:53;;;;;;;6.82;2.85;;;23.10;62.50;;;;;;5011507;28;20037;-61
2021/06/06 00:24:22;;;;;;;6.10;2.70;;;23.10;62.70;;;;;;5011336;28;20122;-59
2021/06/06 00:26:48;;;;;;;3.53;2.60;;;23.10;62.80;;;;;;4993999;28;20026;-61
2021/06/06 00:29:14;;;;;;;7.25;2.50;;;23.00;63.10;;;;;;4994162;28;20029;-63
2021/06/06 00:31:40;;;;;;;5.95;2.50;;;22.90;63.30;;;;;;4993788;28;20030;-61
2021/06/06 00:34:06;;;;;;;6.78;2.25;;;23.00;63.60;;;;;;5011822;28;20026;-57
2021/06/06 00:36:32;;;;;;;6.35;2.15;;;22.80;64.10;;;;;;5011592;28;20030;-62
2021/06/06 00:38:58;;;;;;;4.90;2.38;;;22.70;64.40;;;;;;5011939;28;20030;-62
2021/06/06 00:41:27;;;;;;;5.35;2.75;;;22.70;64.40;;;;;;4977794;28;20374;-64
2021/06/06 00:43:53;;;;;;;5.28;2.30;;;22.60;64.70;;;;;;4995774;28;20026;-62
2021/06/06 00:46:21;;;;;;;3.92;1.92;;;22.50;64.80;;;;;;4994004;28;20030;-52
2021/06/06 00:48:48;;;;;;;3.10;1.88;;;22.50;65.00;;;;;;4995830;28;20073;-62
2021/06/06 00:51:21;;;;;;;3.30;2.00;;;22.40;65.10;;;;;;4995983;28;20156;-62
2021/06/06 00:53:52;;;;;;;2.88;2.17;;;22.40;65.30;;;;;;4994633;28;20037;-63
2021/06/06 00:56:25;;;;;;;3.45;2.20;;;22.40;65.50;;;;;;4994665;28;20034;-60
2021/06/06 00:58:53;;;;;;;3.53;2.13;;;22.40;65.00;;;;;;4995903;28;20133;-61
2021/06/06 01:01:22;;;;;;;3.38;2.30;;;22.50;64.80;;;;;;4994318;28;20034;-48
2021/06/06 01:03:49;;;;;;;3.13;2.17;;;22.60;64.80;;;;;;4994512;28;20392;-61
2021/06/06 01:06:40;;;;;;;5.82;2.35;;;22.50;64.60;;;;;;4994280;28;20381;-62
2021/06/06 01:09:07;;;;;;;4.90;2.70;;;22.40;65.10;;;;;;4996088;28;20085;-61
2021/06/06 01:11:33;;;;;;;3.90;2.55;;;22.30;65.30;;;;;;4993706;28;20038;-62
2021/06/06 01:14:04;;;;;;;4.80;2.63;;;22.30;65.40;;;;;;4993890;28;20029;-61
2021/06/06 01:16:42;;;;;;;5.28;2.85;;;22.30;65.50;;;;;;4993652;28;20161;-61
2021/06/06 01:19:16;;;;;;;4.90;2.83;;;22.10;65.60;;;;;;4995888;28;20053;-60
2021/06/06 01:21:54;;;;;;;3.92;2.88;;;22.10;66.00;;;;;;4994781;28;20108;-60
2021/06/06 01:24:34;;;;;;;5.82;2.90;;;22.00;66.00;;;;;;4995098;28;20026;-62
2021/06/06 01:27:04;;;;;;;3.67;2.80;;;22.10;66.20;;;;;;4995077;28;20026;-61
2021/06/06 01:29:44;;;;;;;5.25;2.90;;;22.10;65.70;;;;;;4994419;28;20059;-61
2021/06/06 01:32:42;;;;;;;5.57;2.95;;;22.10;65.70;;;;;;4993364;28;20034;-62
2021/06/06 01:35:11;;;;;;;3.97;2.90;;;22.10;65.50;;;;;;4994270;28;20041;-60
2021/06/06 01:37:44;;;;;;;3.70;2.67;;;22.00;65.80;;;;;;4994376;28;20203;-61
2021/06/06 01:40:14;;;;;;;5.82;2.58;;;22.00;65.80;;;;;;5003163;28;20061;-62
2021/06/06 01:42:50;;;;;;;3.20;2.50;;;22.00;65.90;;;;;;5014236;28;20061;-61
2021/06/06 01:45:24;;;;;;;3.47;2.40;;;21.80;66.50;;;;;;4997222;28;20343;-60
2021/06/06 01:47:51;;;;;;;4.57;2.60;;;21.70;66.50;;;;;;5014174;28;20030;-61
2021/06/06 01:50:22;;;;;;;2.75;2.33;;;21.80;66.40;;;;;;4996227;28;20049;-61
2021/06/06 01:52:50;;;;;;;5.63;2.42;;;21.80;66.40;;;;;;5014171;28;20038;-60
2021/06/06 01:55:19;;;;;;;3.05;2.40;;;21.70;66.30;;;;;;5013932;28;20034;-61
2021/06/06 01:57:46;;;;;;;3.08;2.33;;;21.70;66.60;;;;;;5013717;28;20109;-61
2021/06/06 02:00:24;;;;;;;2.88;2.25;;;21.70;66.60;;;;;;5014126;28;20061;-61
2021/06/06 02:02:50;;;;;;;2.97;2.20;;;21.70;66.80;;;;;;5014205;28;20028;-61
2021/06/06 02:05:18;;;;;;;3.63;2.20;;;21.60;66.70;;;;;;5014420;28;20022;-60
2021/06/06 02:07:46;;;;;;;3.53;2.50;;;21.70;66.70;;;;;;5013302;28;20018;-61
2021/06/06 02:10:18;;;;;;;4.60;2.13;;;21.60;66.70;;;;;;5013951;28;20029;-62
2021/06/06 02:12:50;;;;;;;6.20;2.10;;;21.50;67.30;;;;;;5013348;28;20042;-61
2021/06/06 02:15:26;;;;;;;4.07;2.22;;;21.40;67.60;;;;;;5013921;28;20113;-61
2021/06/06 02:17:55;;;;;;;2.90;2.20;;;21.30;67.40;;;;;;5013383;28;20433;-62
2021/06/06 02:20:25;;;;;;;2.10;1.90;;;21.40;67.40;;;;;;5013551;28;20026;-60
2021/06/06 02:22:53;;;;;;;3.50;2.08;;;21.40;67.10;;;;;;5013645;28;20033;-61
2021/06/06 02:25:19;;;;;;;4.90;2.00;;;21.40;66.80;;;;;;5013221;28;20037;-61
2021/06/06 02:27:47;;;;;;;4.10;1.90;;;21.40;67.00;;;;;;5012991;28;20062;-61
2021/06/06 02:30:19;;;;;;;2.83;2.15;;;21.30;67.00;;;;;;5013811;28;20033;-60
2021/06/06 02:33:10;;;;;;;3.78;2.00;;;21.20;67.50;;;;;;4995024;28;20036;-60
2021/06/06 02:35:43;;;;;;;2.60;1.85;;;21.20;67.50;;;;;;5012759;28;20028;-61
2021/06/06 02:38:21;;;;;;;1.92;1.70;;;21.30;67.70;;;;;;5013498;28;20030;-60
2021/06/06 02:40:59;;;;;;;2.85;1.80;;;21.30;67.50;;;;;;5012806;28;20046;-61
2021/06/06 02:43:31;;;;;;;6.70;1.70;;;21.30;67.70;;;;;;5013092;28;20030;-62
2021/06/06 02:45:59;;;;;;;2.58;1.83;;;21.20;67.80;;;;;;5013142;28;20492;-62
2021/06/06 02:48:33;;;;;;;3.92;2.08;;;21.20;67.90;;;;;;5013248;28;20113;-62
2021/06/06 02:51:03;;;;;;;3.33;1.88;;;21.10;68.10;;;;;;5012978;28;20056;-62
2021/06/06 02:54:03;;;;;;;3.42;1.90;;;21.10;68.20;;;;;;5012706;28;20104;-59
2021/06/06 02:56:42;;;;;;;2.10;1.70;;;21.10;68.30;;;;;;5012396;28;20029;-59
2021/06/06 02:59:49;;;;;;;3.90;1.80;;;21.20;67.90;;;;;;4995093;28;20026;-60
2021/06/06 03:02:21;;;;;;;3.10;1.70;;;21.10;68.20;;;;;;5006940;28;20042;-61
2021/06/06 03:04:51;;;;;;;1.88;1.58;;;21.00;68.70;;;;;;4994490;28;20225;-60
2021/06/06 03:07:24;;;;;;;3.75;1.90;;;21.00;68.70;;;;;;4995333;28;20146;-60
2021/06/06 03:09:51;;;;;;;2.78;1.65;;;21.00;68.60;;;;;;4994737;28;20077;-61
2021/06/06 03:12:19;;;;;;;3.05;1.92;;;21.00;68.60;;;;;;5012387;28;20049;-61
2021/06/06 03:14:48;;;;;;;3.03;1.85;;;20.90;68.90;;;;;;4994644;28;20022;-61
2021/06/06 03:17:22;;;;;;;2.45;1.80;;;20.90;69.10;;;;;;5012652;28;20022;-61
2021/06/06 03:19:51;;;;;;;1.83;1.60;;;21.00;68.90;;;;;;4994522;28;20029;-61
2021/06/06 03:22:20;;;;;;;2.67;1.98;;;20.90;69.00;;;;;;5012790;28;20373;-60
2021/06/06 03:24:56;;;;;;;2.40;2.00;;;21.00;68.70;;;;;;4994217;28;20384;-59
2021/06/06 03:27:26;;;;;;;2.67;2.00;;;21.10;68.40;;;;;;4995152;28;20033;-60
2021/06/06 03:30:30;;;;;;;2.35;1.70;;;21.10;68.20;;;;;;5012068;28;20029;-60
2021/06/06 03:32:57;;;;;;;2.97;2.00;;;21.00;68.60;;;;;;4973644;28;20042;-60
2021/06/06 03:35:23;;;;;;;4.35;2.08;;;20.80;69.80;;;;;;5012372;28;20092;-61
2021/06/06 03:37:50;;;;;;;2.58;1.50;;;20.80;69.40;;;;;;5011541;28;20106;-61
2021/06/06 03:40:17;;;;;;;2.28;1.67;;;20.80;69.40;;;;;;5012096;28;20050;-60
2021/06/06 03:42:43;;;;;;;2.88;1.88;;;20.80;69.20;;;;;;4994070;28;20030;-61
2021/06/06 03:45:10;;;;;;;2.65;1.85;;;20.80;70.00;;;;;;4994721;28;20026;-60
2021/06/06 03:47:37;;;;;;;6.47;1.77;;;20.80;69.50;;;;;;5011208;28;20044;-60
2021/06/06 03:50:06;;;;;;;5.25;1.90;;;20.70;69.40;;;;;;5011961;28;20116;-60
2021/06/06 03:52:34;;;;;;;3.00;1.85;;;20.70;69.80;;;;;;5011339;28;20068;-58
2021/06/06 03:55:04;;;;;;;2.70;1.55;;;20.70;69.80;;;;;;5012268;28;20129;-60
2021/06/06 03:57:32;;;;;;;4.53;1.60;;;20.70;69.70;;;;;;5012190;28;20018;-60
2021/06/06 03:59:58;;;;;;;1.80;1.40;;;20.70;69.80;;;;;;5012194;28;20108;-60
2021/06/06 04:02:24;;;;;;;2.03;1.40;;;20.80;69.40;;;;;;5011846;28;20384;-61
2021/06/06 04:04:50;;;;;;;3.88;1.52;;;20.70;69.40;;;;;;4993791;28;20022;-61
2021/06/06 04:07:15;;;;;;;4.20;1.40;;;20.80;69.10;;;;;;5012310;28;20058;-61
2021/06/06 04:09:41;;;;;;;2.72;1.35;;;20.90;68.80;;;;;;5011305;28;20434;-60
2021/06/06 04:12:07;;;;;;;1.83;1.40;;;20.80;69.60;;;;;;5011811;28;20041;-60
2021/06/06 04:14:33;;;;;;;1.88;1.38;;;20.70;69.10;;;;;;5014051;28;20096;-54
2021/06/06 04:16:59;;;;;;;2.55;1.30;;;20.80;69.00;;;;;;5015284;28;20469;-60
2021/06/06 04:19:25;;;;;;;2.75;1.52;;;20.80;68.90;;;;;;5015124;28;20022;-60
2021/06/06 04:21:50;;;;;;;2.03;1.33;;;20.80;68.80;;;;;;5014269;28;20497;-61
2021/06/06 04:24:16;;;;;;;2.20;1.40;;;20.90;68.60;;;;;;5015701;28;20109;-60
2021/06/06 04:26:42;;;;;;;2.13;1.42;;;20.90;68.50;;;;;;5014836;28;20030;-61
2021/06/06 04:29:08;;;;;;;5.70;1.52;;;20.80;68.50;;;;;;4997928;28;20028;-62
2021/06/06 04:31:36;;;;;;;3.78;1.30;;;20.80;68.50;;;;;;5014837;28;20120;-61
2021/06/06 04:34:02;;;;;;;1.60;1.20;;;20.80;68.60;;;;;;4997684;28;20116;-60
2021/06/06 04:36:29;;;;;;;1.85;1.17;;;20.80;68.50;;;;;;5015179;28;20068;-62
2021/06/06 04:38:54;;;;;;;2.75;1.27;;;20.80;68.50;;;;;;5014821;28;20026;-60
2021/06/06 04:41:20;;;;;;;4.03;1.10;;;20.70;68.70;;;;;;4997496;28;20061;-59
2021/06/06 04:43:46;;;;;;;2.40;1.10;;;20.70;69.10;;;;;;5014561;28;20474;-62
2021/06/06 04:46:16;;;;;;;3.40;1.25;;;20.70;68.90;;;;;;5015497;28;20026;-61
2021/06/06 04:48:44;;;;;;;1.58;1.20;;;20.80;68.30;;;;;;4996939;28;20022;-61
2021/06/06 04:51:13;;;;;;;3.47;1.20;;;20.90;68.20;;;;;;5014789;28;20069;-63
2021/06/06 04:53:40;;;;;;;1.73;1.13;;;20.80;68.10;;;;;;4996430;28;20057;-62
2021/06/06 04:56:10;;;;;;;2.53;1.30;;;20.80;68.40;;;;;;4997258;28;20021;-61
2021/06/06 04:58:35;;;;;;;4.20;1.02;;;20.80;68.50;;;;;;4996930;28;20041;-62
2021/06/06 05:01:01;;;;;;;2.53;1.23;;;20.80;68.10;;;;;;4997390;28;20392;-61
2021/06/06 05:03:27;;;;;;;1.25;0.98;;;20.90;68.20;;;;;;4997334;28;20030;-61
2021/06/06 05:05:53;;;;;;;2.60;1.08;;;20.80;68.30;;;;;;5014047;28;20560;-61
2021/06/06 05:08:21;;;;;;;2.65;1.17;;;20.90;68.30;;;;;;5014742;28;20460;-60
2021/06/06 05:10:47;;;;;;;2.97;0.98;;;20.90;68.20;;;;;;4996465;28;20387;-60
2021/06/06 05:13:14;;;;;;;1.67;1.08;;;21.10;67.50;;;;;;5014220;28;20026;-60
2021/06/06 05:15:40;;;;;;;1.25;0.90;;;21.30;66.90;;;;;;5014010;28;20029;-62
2021/06/06 05:18:07;;;;;;;1.50;0.95;;;21.20;66.90;;;;;;5014337;28;20029;-56
2021/06/06 05:20:37;;;;;;;3.22;1.00;;;21.30;67.00;;;;;;5014143;28;20060;-60
2021/06/06 05:23:04;;;;;;;1.13;0.90;;;21.30;66.80;;;;;;5014702;28;20057;-60
2021/06/06 05:25:30;;;;;;;1.08;0.80;;;21.40;66.40;;;;;;5013444;28;20429;-57
2021/06/06 05:27:56;;;;;;;1.52;0.80;;;21.50;66.00;;;;;;5013753;28;20057;-60
2021/06/06 05:30:26;;;;;;;1.38;0.95;;;21.60;66.00;;;;;;5014389;28;20113;-58
2021/06/06 05:32:52;;;;;;;1.20;0.90;;;21.60;65.90;;;;;;4996103;28;20464;-61
2021/06/06 05:35:20;;;;;;;1.95;0.95;;;21.60;65.60;;;;;;5014226;28;20033;-60
2021/06/06 05:37:46;;;;;;;1.90;0.90;;;21.50;66.00;;;;;;4995982;28;20030;-59
2021/06/06 05:40:12;;;;;;;1.90;0.90;;;21.70;65.30;;;;;;5013849;28;20057;-62
2021/06/06 05:42:38;;;;;;;1.50;1.02;;;21.80;65.30;;;;;;5013505;28;20030;-61
2021/06/06 05:45:05;;;;;;;1.23;0.90;;;21.80;65.20;;;;;;4996440;28;20120;-61
2021/06/06 05:47:31;;;;;;;1.42;0.90;;;21.80;65.10;;;;;;5013529;28;20026;-64
2021/06/06 05:49:57;;;;;;;1.13;0.90;;;22.00;64.60;;;;;;5013737;28;20109;-64
2021/06/06 05:52:23;;;;;;;1.67;0.90;;;22.10;64.20;;;;;;4996390;28;20037;-64
2021/06/06 05:54:49;;;;;;;1.50;1.02;;;22.20;63.60;;;;;;5013706;28;20022;-64
2021/06/06 05:57:16;;;;;;;1.55;0.95;;;22.20;63.70;;;;;;5013926;28;20097;-64
2021/06/06 05:59:43;;;;;;;1.10;0.90;;;22.20;63.70;;;;;;4996041;28;20496;-63
2021/06/06 06:02:09;;;;;;;1.95;0.80;;;22.30;63.40;;;;;;5013084;28;20030;-65
2021/06/06 06:04:35;;;;;;;2.33;0.80;;;22.50;62.80;;;;;;4996076;28;20113;-56
2021/06/06 06:07:02;;;;;;;1.70;0.90;;;22.90;61.60;;;;;;4996160;28;20503;-61
2021/06/06 06:09:46;;;;;;;1.15;0.90;;;22.90;61.40;;;;;;5013357;28;20053;-63
2021/06/06 06:12:12;;;;;;;1.88;1.00;;;23.00;61.10;;;;;;4996045;28;20119;-61
2021/06/06 06:14:39;;;;;;;4.05;0.90;;;22.90;61.30;;;;;;4995118;28;20026;-63
2021/06/06 06:17:05;;;;;;;1.33;0.80;;;23.00;61.10;;;;;;5013661;28;20041;-59
2021/06/06 06:19:32;;;;;;;1.20;0.80;;;23.10;60.60;;;;;;5013492;28;20029;-62
2021/06/06 06:21:58;;;;;;;2.67;0.98;;;23.00;60.80;;;;;;5011795;28;20117;-62
2021/06/06 06:24:24;;;;;;;0.90;0.68;;;23.10;60.50;;;;;;5012202;28;20060;-62
2021/06/06 06:26:51;;;;;;;1.30;0.70;;;23.00;61.00;;;;;;5012443;28;20050;-62
2021/06/06 06:29:18;;;;;;;3.65;0.85;;;22.80;61.60;;;;;;4995857;28;20081;-62
2021/06/06 06:31:45;;;;;;;1.17;0.88;;;22.80;61.70;;;;;;5012249;28;20103;-63
2021/06/06 06:34:11;;;;;;;1.15;0.60;;;22.80;61.70;;;;;;5013545;28;20109;-63
2021/06/06 06:36:38;;;;;;;2.45;0.93;;;22.90;61.60;;;;;;5012416;28;20034;-62
2021/06/06 06:39:06;;;;;;;1.30;0.88;;;22.90;61.30;;;;;;4995745;28;20120;-65
2021/06/06 06:41:32;;;;;;;2.80;0.90;;;22.90;61.30;;;;;;4992104;28;20050;-62
2021/06/06 06:43:59;;;;;;;1.15;0.90;;;22.70;62.00;;;;;;4992643;28;20026;-63
2021/06/06 06:46:27;;;;;;;1.30;0.90;;;22.70;62.70;;;;;;4992118;28;20033;-62
2021/06/06 06:48:55;;;;;;;1.35;0.88;;;22.90;61.80;;;;;;4992768;28;20080;-62
2021/06/06 06:51:22;;;;;;;2.00;0.95;;;23.00;61.30;;;;;;4993227;28;20083;-63
2021/06/06 06:53:50;;;;;;;3.47;0.80;;;23.10;60.90;;;;;;4991705;28;20117;-63
2021/06/06 06:56:17;;;;;;;2.05;0.73;;;23.00;61.10;;;;;;4993295;28;20118;-63
2021/06/06 06:58:42;;;;;;;1.10;0.80;;;23.00;61.20;;;;;;4992563;28;20033;-61
2021/06/06 07:01:09;;;;;;;1.63;1.10;;;22.90;61.20;;;;;;4991836;28;20389;-63
2021/06/06 07:03:36;;;;;;;1.73;0.80;;;22.90;61.40;;;;;;4992966;28;20048;-61
2021/06/06 07:06:06;;;;;;;1.20;0.80;;;22.70;61.70;;;;;;4993009;28;20053;-63
2021/06/06 07:08:37;;;;;;;1.98;1.00;;;22.80;62.30;;;;;;4992693;28;20169;-64
2021/06/06 07:11:05;;;;;;;2.72;1.13;;;22.90;61.50;;;;;;4992751;28;20038;-62
2021/06/06 07:13:31;;;;;;;1.95;1.00;;;22.80;61.50;;;;;;4992990;28;20030;-64
2021/06/06 07:16:00;;;;;;;2.95;0.90;;;22.80;61.70;;;;;;4991134;28;20041;-64
2021/06/06 07:18:27;;;;;;;1.42;0.95;;;22.70;61.80;;;;;;4991476;28;20034;-62
2021/06/06 07:20:57;;;;;;;4.72;1.20;;;22.80;61.80;;;;;;4992240;28;20031;-62
2021/06/06 07:23:24;;;;;;;4.15;1.30;;;22.80;61.50;;;;;;4992452;28;20106;-61
2021/06/06 07:25:50;;;;;;;1.60;1.10;;;22.70;62.00;;;;;;4992439;28;20048;-62
2021/06/06 07:28:21;;;;;;;1.42;1.00;;;22.50;62.60;;;;;;4992972;28;20412;-63
2021/06/06 07:30:50;;;;;;;3.78;1.20;;;22.50;63.00;;;;;;4992237;28;20030;-60
2021/06/06 07:33:18;;;;;;;1.67;1.27;;;22.50;62.60;;;;;;4991217;28;20127;-61
2021/06/06 07:35:45;;;;;;;4.10;1.23;;;22.60;62.60;;;;;;4990683;28;20022;-65
2021/06/06 07:38:11;;;;;;;2.25;1.05;;;22.60;62.50;;;;;;4992236;28;20381;-60
2021/06/06 07:40:41;;;;;;;1.73;1.25;;;22.60;62.40;;;;;;4990350;28;20054;-63
2021/06/06 07:43:08;;;;;;;2.15;1.10;;;22.70;62.20;;;;;;4992114;28;20042;-65
2021/06/06 07:45:35;;;;;;;2.65;1.10;;;22.60;62.60;;;;;;4990917;28;20030;-64
2021/06/06 07:48:02;;;;;;;2.63;1.50;;;22.60;62.50;;;;;;4991765;28;20042;-63
2021/06/06 07:50:35;;;;;;;1.98;1.40;;;22.80;62.20;;;;;;4991874;28;20029;-63
2021/06/06 07:53:01;;;;;;;2.60;1.57;;;22.80;61.90;;;;;;4990490;28;20128;-63
2021/06/06 07:55:28;;;;;;;5.22;1.30;;;22.80;61.90;;;;;;4992201;28;20018;-61
2021/06/06 07:57:54;;;;;;;1.73;1.00;;;22.90;61.70;;;;;;4991286;28;20225;-57
2021/06/06 08:00:31;;;;;;;1.55;1.05;;;22.90;61.90;;;;;;4991786;28;20049;-61
2021/06/06 08:02:57;;;;;;;2.40;1.27;;;22.90;61.70;;;;;;4991536;28;20187;-61
2021/06/06 08:05:23;;;;;;;3.47;1.00;;;22.80;62.00;;;;;;4990694;28;20114;-63
2021/06/06 08:07:49;;;;;;;4.43;1.20;;;22.70;62.20;;;;;;4991078;28;20446;-60
2021/06/06 08:10:17;;;;;;;1.73;1.08;;;22.70;62.40;;;;;;4991910;28;20037;-61
2021/06/06 08:12:43;;;;;;;1.27;1.00;;;22.90;61.90;;;;;;4989439;28;20055;-64
2021/06/06 08:15:11;;;;;;;1.70;1.20;;;23.00;61.40;;;;;;4991596;28;20034;-61
2021/06/06 08:17:38;;;;;;;3.33;1.00;;;23.00;61.30;;;;;;4991672;28;20159;-52
2021/06/06 08:20:26;;;;;;;2.30;1.05;;;22.90;61.70;;;;;;4991507;28;20449;-64
2021/06/06 08:22:52;;;;;;;1.00;0.90;;;22.70;62.10;;;;;;4991106;28;20505;-62
2021/06/06 08:25:20;;;;;;;1.38;1.00;;;22.60;62.30;;;;;;4990152;28;20077;-63
2021/06/06 08:27:47;;;;;;;1.25;0.90;;;22.50;62.80;;;;;;4990927;28;20335;-63
2021/06/06 08:30:25;;;;;;;1.25;0.90;;;22.50;62.80;;;;;;4991505;28;20046;-63
2021/06/06 08:32:51;;;;;;;2.95;1.10;;;22.50;62.80;;;;;;4991052;28;20030;-63
2021/06/06 08:35:17;;;;;;;1.30;1.15;;;22.50;62.80;;;;;;4990318;28;20147;-65
2021/06/06 08:37:44;;;;;;;2.08;0.90;;;22.50;62.70;;;;;;4989433;28;20030;-63
2021/06/06 08:40:13;;;;;;;1.27;0.80;;;22.50;62.80;;;;;;4999138;28;20064;-63
2021/06/06 08:42:43;;;;;;;1.58;0.80;;;22.60;62.60;;;;;;5010537;28;20092;-61
2021/06/06 08:45:33;;;;;;;1.35;1.00;;;22.60;62.40;;;;;;5010551;28;20026;-65
2021/06/06 08:48:02;;;;;;;1.55;1.00;;;22.50;63.00;;;;;;5010729;28;20022;-65
2021/06/06 08:50:38;;;;;;;1.33;0.95;;;22.60;62.60;;;;;;5011293;28;20025;-58
2021/06/06 08:53:15;;;;;;;1.00;0.90;;;22.30;63.40;;;;;;5011250;28;20076;-60
2021/06/06 08:55:47;;;;;;;1.77;1.05;;;22.30;63.60;;;;;;5010556;28;20022;-63
2021/06/06 08:58:33;;;;;;;1.67;1.00;;;22.50;62.90;;;;;;4993268;28;20092;-65
2021/06/06 09:01:30;;;;;;;2.13;1.20;;;22.60;62.60;;;;;;5012255;28;20103;-64
2021/06/06 09:03:58;;;;;;;2.25;1.20;;;22.40;63.20;;;;;;5014085;28;20439;-65
2021/06/06 09:06:38;;;;;;;2.92;1.30;;;22.40;63.10;;;;;;5014285;28;20030;-61
2021/06/06 09:09:06;;;;;;;1.30;0.95;;;22.40;63.40;;;;;;5014152;28;20029;-63
2021/06/06 09:11:33;;;;;;;1.20;1.00;;;22.40;63.40;;;;;;5013492;28;20435;-64
2021/06/06 09:14:00;;;;;;;2.33;1.38;;;22.40;63.30;;;;;;4996229;28;20076;-63
2021/06/06 09:16:50;;;;;;;1.50;1.30;;;22.50;63.00;;;;;;5013020;28;20030;-62
2021/06/06 09:19:16;;;;;;;1.60;1.23;;;22.40;63.30;;;;;;4995552;28;20033;-64
2021/06/06 09:21:52;;;;;;;2.15;1.50;;;22.50;63.20;;;;;;5008554;28;20163;-58
2021/06/06 09:24:31;;;;;;;2.25;1.58;;;22.60;62.60;;;;;;4995174;28;20080;-61
2021/06/06 09:27:34;;;;;;;4.95;1.00;;;22.80;62.10;;;;;;5013121;28;20053;-64
2021/06/06 09:30:03;;;;;;;1.85;1.20;;;23.10;61.20;;;;;;4989190;28;20277;-65
2021/06/06 09:32:29;;;;;;;1.15;1.00;;;23.30;60.80;;;;;;4994536;28;20037;-63
2021/06/06 09:34:59;;;;;;;2.22;1.48;;;23.50;59.80;;;;;;5006960;28;20053;-61
2021/06/06 09:37:27;;;;;;;2.38;1.17;;;23.70;59.40;;;;;;5009185;28;20026;-62
2021/06/06 09:40:10;;;;;;;3.72;1.48;;;23.80;58.70;;;;;;5010470;28;20155;-61
2021/06/06 09:42:40;;;;;;;1.25;1.10;;;24.00;58.30;;;;;;5012733;28;20026;-61
2021/06/06 09:45:26;;;;;;;2.05;1.50;;;23.90;58.40;;;;;;5010714;28;20052;-62
2021/06/06 09:48:15;;;;;;;2.15;1.20;;;24.10;58.00;;;;;;5012689;28;20061;-64
2021/06/06 09:50:47;;;;;;;1.77;1.40;;;24.20;57.60;;;;;;4994129;28;20538;-63
2021/06/06 09:53:14;;;;;;;2.75;1.45;;;24.70;57.10;;;;;;5010359;28;20056;-62
2021/06/06 09:55:40;;;;;;;5.00;4.15;;;25.10;55.60;;;;;;5009141;28;20407;-63
2021/06/06 09:58:33;;;;;;;2.70;1.85;;;25.30;55.50;;;;;;5012492;28;20033;-61
2021/06/06 10:01:21;;;;;;;2.03;1.20;;;25.50;54.40;;;;;;4998836;28;20041;-55
2021/06/06 10:03:51;;;;;;;1.52;1.23;;;25.80;53.80;;;;;;5011870;28;20025;-65
2021/06/06 10:06:39;;;;;;;1.98;1.42;;;25.90;53.40;;;;;;5011836;28;20392;-64
2021/06/06 10:09:23;;;;;;;5.07;1.52;;;26.10;52.70;;;;;;5009621;28;20032;-62
2021/06/06 10:12:01;;;;;;;4.60;1.50;;;26.00;52.60;;;;;;4993918;28;20057;-62
2021/06/06 10:14:56;;;;;;;4.43;1.20;;;25.90;52.70;;;;;;5010712;28;20449;-63
2021/06/06 10:17:52;;;;;;;1.48;1.38;;;25.90;53.20;;;;;;4993990;28;20105;-63
2021/06/06 10:20:41;;;;;;;2.10;1.40;;;25.80;52.80;;;;;;5008515;28;20038;-63
2021/06/06 10:23:48;;;;;;;2.13;1.38;;;25.70;53.30;;;;;;5013372;28;20026;-62
2021/06/06 10:26:34;;;;;;;2.97;1.13;;;25.80;53.20;;;;;;4998993;28;20046;-61
2021/06/06 10:29:11;;;;;;;1.15;1.00;;;26.00;52.80;;;;;;4993070;28;20036;-62
2021/06/06 10:31:44;;;;;;;1.70;1.50;;;26.30;52.40;;;;;;5011272;28;20034;-63
2021/06/06 10:34:25;;;;;;;1.55;1.17;;;26.40;51.90;;;;;;4994862;28;20033;-62
2021/06/06 10:36:51;;;;;;;1.83;1.30;;;26.50;51.30;;;;;;5012138;28;20025;-61
2021/06/06 10:39:22;;;;;;;1.25;1.15;;;26.20;51.80;;;;;;4995032;28;20033;-61
2021/06/06 10:42:03;;;;;;;1.58;1.38;;;26.20;52.10;;;;;;5012001;28;20026;-62
2021/06/06 10:44:44;;;;;;;1.65;1.20;;;26.10;52.50;;;;;;5011372;28;20476;-62
2021/06/06 10:47:45;;;;;;;2.53;1.50;;;26.50;51.50;;;;;;4994914;28;20025;-63
2021/06/06 10:50:50;;;;;;;1.30;1.20;;;26.70;50.70;;;;;;4989725;28;20045;-62
2021/06/06 10:53:26;;;;;;;1.50;1.27;;;26.80;50.60;;;;;;4989305;28;20210;-63
2021/06/06 10:56:05;;;;;;;3.85;1.40;;;27.00;50.30;;;;;;5011548;28;20022;-55
2021/06/06 10:58:30;;;;;;;3.30;1.48;;;27.20;49.80;;;;;;5010997;28;20373;-63
2021/06/06 11:01:16;;;;;;;1.58;1.45;;;27.00;50.20;;;;;;4993052;28;20041;-63
2021/06/06 11:03:43;;;;;;;2.50;2.00;;;26.90;50.60;;;;;;4993100;28;20037;-54
2021/06/06 11:06:27;;;;;;;3.50;1.70;;;27.10;50.10;;;;;;4993896;28;20026;-60
2021/06/06 11:08:53;;;;;;;2.03;1.52;;;27.20;49.90;;;;;;5011167;28;20145;-61
2021/06/06 11:11:25;;;;;;;2.55;2.00;;;27.40;49.80;;;;;;5011424;28;20518;-60
2021/06/06 11:13:55;;;;;;;2.88;2.08;;;27.40;49.30;;;;;;4993561;28;20030;-60
2021/06/06 11:16:31;;;;;;;3.45;1.80;;;27.40;49.50;;;;;;5011432;28;20057;-59
2021/06/06 11:19:08;;;;;;;3.85;1.55;;;27.70;49.00;;;;;;5011284;28;20026;-63
2021/06/06 11:21:45;;;;;;;1.70;1.40;;;28.00;48.30;;;;;;4995007;28;20068;-62
2021/06/06 11:24:28;;;;;;;3.25;1.50;;;28.00;47.90;;;;;;4991754;28;20018;-61
2021/06/06 11:27:18;;;;;;;1.60;1.50;;;28.00;47.90;;;;;;5010029;28;20030;-64
2021/06/06 11:29:55;;;;;;;1.58;1.35;;;27.80;48.50;;;;;;5009605;28;20261;-62
2021/06/06 11:32:26;;;;;;;2.03;1.58;;;27.80;48.20;;;;;;5009054;28;20034;-58
2021/06/06 11:35:30;;;;;;;1.92;1.70;;;27.80;48.20;;;;;;5009060;28;20038;-58
2021/06/06 11:38:12;;;;;;;3.60;1.63;;;27.90;48.10;;;;;;4996698;28;20038;-63
2021/06/06 11:40:50;;;;;;;3.50;1.45;;;27.70;48.50;;;;;;5010439;28;20100;-62
2021/06/06 11:43:31;;;;;;;4.47;1.60;;;27.50;48.70;;;;;;5009889;28;20030;-62
2021/06/06 11:46:13;;;;;;;3.28;1.58;;;27.50;48.90;;;;;;4992241;28;20373;-63
2021/06/06 11:48:52;;;;;;;3.35;2.08;;;27.50;49.00;;;;;;4992617;28;20073;-62
2021/06/06 11:51:39;;;;;;;2.83;1.40;;;27.60;48.60;;;;;;4992425;28;20480;-63
2021/06/06 11:54:29;;;;;;;1.52;1.30;;;27.80;48.20;;;;;;5009463;28;20152;-59
2021/06/06 11:57:00;;;;;;;5.32;1.83;;;27.50;48.80;;;;;;4975870;28;20092;-62
2021/06/06 11:59:48;;;;;;;2.10;1.35;;;27.70;48.60;;;;;;5011365;28;20150;-61
2021/06/06 12:02:21;;;;;;;3.25;1.50;;;27.50;48.80;;;;;;4993830;28;20061;-61
2021/06/06 12:04:48;;;;;;;4.60;1.70;;;27.50;48.90;;;;;;4992522;28;20567;-61
2021/06/06 12:07:22;;;;;;;1.73;1.35;;;27.60;48.40;;;;;;4993245;28;20034;-62
2021/06/06 12:09:50;;;;;;;1.55;1.30;;;27.60;48.60;;;;;;4992605;28;20037;-61
2021/06/06 12:12:25;;;;;;;1.88;1.38;;;27.70;49.30;;;;;;5010219;28;20061;-60
2021/06/06 12:15:06;;;;;;;2.45;1.13;;;27.70;48.70;;;;;;4985860;28;20022;-60
2021/06/06 12:17:32;;;;;;;2.55;1.50;;;27.90;48.40;;;;;;4984328;28;20533;-57
2021/06/06 12:20:04;;;;;;;4.93;1.30;;;28.00;48.20;;;;;;4991831;28;20041;-54
2021/06/06 12:22:36;;;;;;;3.30;1.30;;;27.90;48.50;;;;;;4987410;28;20354;-60
2021/06/06 12:25:14;;;;;;;1.25;1.15;;;27.90;48.30;;;;;;4989711;28;20161;-57
2021/06/06 12:27:46;;;;;;;2.47;1.10;;;27.80;48.70;;;;;;5009652;28;20112;-60
2021/06/06 12:30:17;;;;;;;1.83;1.40;;;27.60;48.80;;;;;;5009845;28;20022;-61
2021/06/06 12:32:50;;;;;;;4.40;1.90;;;27.60;48.90;;;;;;4992243;28;20029;-57
2021/06/06 12:35:19;;;;;;;1.90;1.57;;;27.50;48.90;;;;;;5012926;28;20083;-61
2021/06/06 12:37:52;;;;;;;1.75;1.33;;;27.50;48.70;;;;;;5013955;28;20097;-61
2021/06/06 12:40:22;;;;;;;3.47;1.27;;;27.50;48.70;;;;;;5013977;28;20264;-62
2021/06/06 12:42:53;;;;;;;1.60;1.30;;;27.40;48.90;;;;;;5013842;28;20064;-62
2021/06/06 12:45:19;;;;;;;2.00;1.40;;;27.30;49.30;;;;;;4996267;28;20033;-62
2021/06/06 12:47:46;;;;;;;2.20;1.30;;;27.20;49.20;;;;;;5013779;28;20018;-60
2021/06/06 12:50:12;;;;;;;2.22;1.50;;;26.90;49.60;;;;;;5014224;28;20025;-63
2021/06/06 12:52:42;;;;;;;3.40;1.33;;;26.60;50.50;;;;;;5014062;28;20065;-63
2021/06/06 12:55:11;;;;;;;1.92;1.65;;;26.60;50.70;;;;;;4996071;28;20076;-62
2021/06/06 12:57:38;;;;;;;1.83;1.50;;;26.70;50.70;;;;;;4996108;28;20113;-61
2021/06/06 13:00:18;;;;;;;4.88;1.48;;;27.00;50.20;;;;;;5013328;28;20026;-62
2021/06/06 13:02:45;;;;;;;2.28;1.20;;;27.40;49.80;;;;;;4995081;28;20115;-57
2021/06/06 13:05:15;;;;;;;2.05;1.30;;;27.70;48.90;;;;;;5013885;28;20065;-60
2021/06/06 13:07:41;;;;;;;1.83;1.20;;;28.00;48.10;;;;;;5013198;28;20022;-61
2021/06/06 13:10:16;;;;;;;4.00;1.20;;;28.10;47.90;;;;;;5013070;28;20110;-62
2021/06/06 13:12:44;;;;;;;3.22;1.27;;;28.20;47.20;;;;;;5013099;28;20125;-63